Terminal Aerodrome Forecast
Issued by NWS

Home | Current Version | Previous Version | Text Only | Print | Product List | Glossary On
Versions: 1 2 3 4 5 6 7 8 9 10 11 12 13 14
000
FTAK31 PAFA 230540
TAFAOT
TAF
PAOT 230540Z 2306/2406 27018KT P6SM -SHRA SCT015 BKN025 OVC060
     FM231200 28008KT P6SM VCSH OVC015
     FM232100 30010KT P6SM BKN040=

USA.gov is the U.S. government's official web portal to all federal, state and local government web resources and services.